createdAt,value
2018-11-22T00:00:53.573Z,0.00
2018-11-22T00:01:53.501Z,0.00
2018-11-22T00:02:53.474Z,0.00
2018-11-22T00:03:53.427Z,0.00
2018-11-22T00:04:53.385Z,0.00
2018-11-22T00:05:53.323Z,0.00
2018-11-22T00:06:53.304Z,0.00
2018-11-22T00:07:53.259Z,0.00
2018-11-22T00:08:53.230Z,0.00
2018-11-22T00:09:53.194Z,0.00
2018-11-22T00:10:53.098Z,0.00
2018-11-22T00:11:53.069Z,0.00
2018-11-22T00:12:53.023Z,0.00
2018-11-22T00:13:52.983Z,0.00
2018-11-22T00:14:52.929Z,0.00
2018-11-22T00:15:52.942Z,0.00
2018-11-22T00:16:52.861Z,0.00
2018-11-22T00:17:52.816Z,0.00
2018-11-22T00:18:52.748Z,0.00
2018-11-22T00:19:52.772Z,0.00
2018-11-22T00:20:52.699Z,0.00
2018-11-22T00:21:52.625Z,0.00
2018-11-22T00:22:52.598Z,0.00
2018-11-22T00:23:52.544Z,0.00
2018-11-22T00:24:52.514Z,0.00
2018-11-22T00:25:52.456Z,0.00
2018-11-22T00:26:52.436Z,0.00
2018-11-22T00:27:52.366Z,0.00
2018-11-22T00:28:52.357Z,0.00
2018-11-22T00:29:52.260Z,0.00
2018-11-22T00:30:52.247Z,0.00
2018-11-22T00:31:52.213Z,0.00
2018-11-22T00:32:52.141Z,0.00
2018-11-22T00:33:52.115Z,0.00
2018-11-22T00:34:52.079Z,0.00
2018-11-22T00:35:52.006Z,0.00
2018-11-22T00:36:51.996Z,0.00
2018-11-22T00:37:51.938Z,0.00
2018-11-22T00:38:51.878Z,0.00
2018-11-22T00:39:51.906Z,0.00
2018-11-22T00:40:51.833Z,0.00
2018-11-22T00:41:51.782Z,0.00
2018-11-22T00:42:51.730Z,0.00
2018-11-22T00:43:51.657Z,0.00
2018-11-22T00:44:51.611Z,0.00
2018-11-22T00:45:51.574Z,0.00
2018-11-22T00:47:01.728Z,0.00
2018-11-22T00:47:51.462Z,0.00
2018-11-22T00:48:51.438Z,0.00
2018-11-22T00:49:51.379Z,0.00
2018-11-22T00:50:51.327Z,0.00
2018-11-22T00:51:51.321Z,0.00
2018-11-22T00:52:51.248Z,0.00
2018-11-22T00:53:51.195Z,0.00
2018-11-22T00:54:51.150Z,0.00
2018-11-22T00:55:51.115Z,0.00
2018-11-22T00:56:51.070Z,0.00
2018-11-22T00:57:51.043Z,0.00
2018-11-22T00:58:50.979Z,0.00
2018-11-22T00:59:50.933Z,0.00
2018-11-22T01:00:50.886Z,0.00
2018-11-22T01:01:50.843Z,0.00
2018-11-22T01:02:50.823Z,0.00
2018-11-22T01:03:50.759Z,0.00
2018-11-22T01:04:50.715Z,0.00
2018-11-22T01:05:50.677Z,0.00
2018-11-22T01:06:50.628Z,0.00
2018-11-22T01:07:50.601Z,0.00
2018-11-22T01:08:50.536Z,0.00
2018-11-22T01:09:50.497Z,0.00
2018-11-22T01:10:50.453Z,0.00
2018-11-22T01:11:50.400Z,0.00
2018-11-22T01:12:50.387Z,0.00
2018-11-22T01:13:50.314Z,0.00
2018-11-22T01:14:50.269Z,0.00
2018-11-22T01:15:50.230Z,0.00
2018-11-22T01:16:50.187Z,0.00
2018-11-22T01:17:50.142Z,0.00
2018-11-22T01:18:50.122Z,0.00
2018-11-22T01:19:50.047Z,0.00
2018-11-22T01:20:50.007Z,0.00
2018-11-22T01:21:49.956Z,0.00
2018-11-22T01:22:49.913Z,0.00
2018-11-22T01:23:49.900Z,0.00
2018-11-22T01:24:49.837Z,0.00
2018-11-22T01:25:49.783Z,0.00
2018-11-22T01:26:49.740Z,0.00
2018-11-22T01:27:49.701Z,0.00
2018-11-22T01:28:49.685Z,0.00
2018-11-22T01:29:49.616Z,0.00
2018-11-22T01:30:49.569Z,0.00
2018-11-22T01:31:49.526Z,0.00
2018-11-22T01:32:49.475Z,0.00
2018-11-22T01:33:49.428Z,0.00
2018-11-22T01:34:49.412Z,0.00
2018-11-22T01:35:49.350Z,0.00
2018-11-22T01:36:49.307Z,0.00
2018-11-22T01:37:49.260Z,0.00
2018-11-22T01:38:49.218Z,0.00
2018-11-22T01:39:49.188Z,0.00
2018-11-22T01:40:49.124Z,0.00
2018-11-22T01:41:49.087Z,0.00
2018-11-22T01:42:49.040Z,0.00
2018-11-22T01:43:49.003Z,0.00
2018-11-22T01:44:48.974Z,0.00
2018-11-22T01:45:48.904Z,0.00
2018-11-22T01:46:48.856Z,0.00
2018-11-22T01:47:48.823Z,0.00
2018-11-22T01:48:48.778Z,0.00
2018-11-22T01:49:48.730Z,0.00
2018-11-22T01:50:48.718Z,0.00
2018-11-22T01:51:48.640Z,0.00
2018-11-22T01:52:48.591Z,0.00
2018-11-22T01:53:48.550Z,0.00
2018-11-22T01:54:48.508Z,0.00
2018-11-22T01:55:48.466Z,0.00
2018-11-22T01:56:48.450Z,0.00
2018-11-22T01:57:48.372Z,0.00
2018-11-22T01:58:48.328Z,0.00
2018-11-22T01:59:48.317Z,0.00
2018-11-22T02:00:48.248Z,0.00
2018-11-22T02:01:48.225Z,0.00
2018-11-22T02:02:48.159Z,0.00
2018-11-22T02:03:48.106Z,0.00
2018-11-22T02:04:48.064Z,0.00
2018-11-22T02:05:48.039Z,0.00
2018-11-22T02:06:48.019Z,0.00
2018-11-22T02:07:47.938Z,0.00
2018-11-22T02:08:47.892Z,0.00
2018-11-22T02:09:47.852Z,0.00
2018-11-22T02:10:47.804Z,0.00
2018-11-22T02:11:47.754Z,0.00
2018-11-22T02:12:47.733Z,0.00
2018-11-22T02:13:47.673Z,0.00
2018-11-22T02:14:47.631Z,0.00
2018-11-22T02:15:47.599Z,0.00
2018-11-22T02:16:47.533Z,0.00
2018-11-22T02:17:47.494Z,0.00
2018-11-22T02:18:47.443Z,0.00
2018-11-22T02:19:47.409Z,0.00
2018-11-22T02:20:47.389Z,0.00
2018-11-22T02:21:47.317Z,0.00
2018-11-22T02:22:47.278Z,0.00
2018-11-22T02:23:47.224Z,0.00
2018-11-22T02:24:47.183Z,0.00
2018-11-22T02:25:47.162Z,0.00
2018-11-22T02:26:47.089Z,0.00
2018-11-22T02:27:47.059Z,0.00
2018-11-22T02:28:47.008Z,0.00
2018-11-22T02:29:46.958Z,0.00
2018-11-22T02:30:46.913Z,0.00
2018-11-22T02:31:46.899Z,0.00
2018-11-22T02:32:46.831Z,0.00
2018-11-22T02:33:46.788Z,0.00
2018-11-22T02:34:46.746Z,0.00
2018-11-22T02:35:46.693Z,0.00
2018-11-22T02:36:46.679Z,0.00
2018-11-22T02:37:46.606Z,0.00
2018-11-22T02:38:46.563Z,0.00
2018-11-22T02:39:46.525Z,0.00
2018-11-22T02:40:46.481Z,0.00
2018-11-22T02:41:46.477Z,0.00
2018-11-22T02:42:46.392Z,0.00
2018-11-22T02:43:46.342Z,0.00
2018-11-22T02:44:46.299Z,0.00
2018-11-22T02:45:46.262Z,0.00
2018-11-22T02:46:46.212Z,0.00
2018-11-22T02:47:46.201Z,0.00
2018-11-22T02:48:46.125Z,0.00
2018-11-22T02:49:46.084Z,0.00
2018-11-22T02:50:46.036Z,0.00
2018-11-22T02:51:45.996Z,0.00
2018-11-22T02:52:45.979Z,0.00
2018-11-22T02:53:45.908Z,0.00
2018-11-22T02:54:45.866Z,0.00
2018-11-22T02:55:45.813Z,0.00
2018-11-22T02:56:45.769Z,0.00
2018-11-22T02:57:45.746Z,0.00
2018-11-22T02:58:45.678Z,0.00
2018-11-22T02:59:45.649Z,0.00
2018-11-22T03:00:45.600Z,0.00
2018-11-22T03:01:45.553Z,0.00
2018-11-22T03:02:45.532Z,0.00
2018-11-22T03:03:45.473Z,0.00
2018-11-22T03:04:45.434Z,0.00
2018-11-22T03:05:45.377Z,0.00
2018-11-22T03:06:45.338Z,0.00
2018-11-22T03:07:45.282Z,0.00
2018-11-22T03:08:45.265Z,0.00
2018-11-22T03:09:45.195Z,0.00
2018-11-22T03:10:45.153Z,0.00
2018-11-22T03:11:45.115Z,0.00
2018-11-22T03:12:45.072Z,0.00
2018-11-22T03:13:45.056Z,0.00
2018-11-22T03:14:44.984Z,0.00
2018-11-22T03:15:44.935Z,0.00
2018-11-22T03:16:44.887Z,0.00
2018-11-22T03:17:44.850Z,0.00
2018-11-22T03:18:44.829Z,0.00
2018-11-22T03:19:44.754Z,0.00
2018-11-22T03:20:44.710Z,0.00
2018-11-22T03:21:44.687Z,0.00
2018-11-22T03:22:44.620Z,0.00
2018-11-22T03:23:44.608Z,0.00
2018-11-22T03:24:44.538Z,0.00
2018-11-22T03:25:44.493Z,0.00
2018-11-22T03:26:44.478Z,0.00
2018-11-22T03:27:44.410Z,0.00
2018-11-22T03:28:44.357Z,0.00
2018-11-22T03:29:44.316Z,0.00
2018-11-22T03:30:44.273Z,0.00
2018-11-22T03:31:44.232Z,0.00
2018-11-22T03:32:44.217Z,0.00
2018-11-22T03:33:44.144Z,0.00
2018-11-22T03:34:44.092Z,0.00
2018-11-22T03:35:44.057Z,0.00
2018-11-22T03:36:44.012Z,0.00
2018-11-22T03:37:43.971Z,0.00
2018-11-22T03:38:43.951Z,0.00
2018-11-22T03:39:43.908Z,0.00
2018-11-22T03:40:43.828Z,0.00
2018-11-22T03:41:43.784Z,0.00
2018-11-22T03:42:43.740Z,0.00
2018-11-22T03:43:43.729Z,0.00
2018-11-22T03:44:43.658Z,0.00
2018-11-22T03:45:43.618Z,0.00
2018-11-22T03:46:43.569Z,0.00
2018-11-22T03:47:43.523Z,0.00
2018-11-22T03:48:43.500Z,0.00
2018-11-22T03:49:43.469Z,0.00
2018-11-22T03:50:43.395Z,0.00
2018-11-22T03:51:43.344Z,0.00
2018-11-22T03:52:43.298Z,0.00
2018-11-22T03:53:43.254Z,0.00
2018-11-22T03:54:43.212Z,0.00
2018-11-22T03:55:43.204Z,0.00
2018-11-22T03:56:43.135Z,0.00
2018-11-22T03:57:43.086Z,0.00
2018-11-22T03:58:43.044Z,0.00
2018-11-22T03:59:42.993Z,0.00
2018-11-22T04:00:42.972Z,0.00
2018-11-22T04:01:42.904Z,0.00
2018-11-22T04:02:42.863Z,0.00
2018-11-22T04:03:42.824Z,0.00
2018-11-22T04:04:42.776Z,0.00
2018-11-22T04:05:42.745Z,0.00
2018-11-22T04:06:42.678Z,0.00
2018-11-22T04:07:42.648Z,0.00
2018-11-22T04:08:42.600Z,0.00
2018-11-22T04:09:42.559Z,0.00
2018-11-22T04:10:42.544Z,0.00
2018-11-22T04:11:42.463Z,0.00
2018-11-22T04:12:42.417Z,0.00
2018-11-22T04:13:42.378Z,0.00
2018-11-22T04:14:42.331Z,0.00
2018-11-22T04:15:42.299Z,0.00
2018-11-22T04:16:42.272Z,0.00
2018-11-22T04:17:42.201Z,0.00
2018-11-22T04:18:42.155Z,0.00
2018-11-22T04:19:42.110Z,0.00
2018-11-22T04:20:42.062Z,0.00
2018-11-22T04:21:42.059Z,0.00
2018-11-22T04:22:42.008Z,0.00
2018-11-22T04:23:41.932Z,0.00
2018-11-22T04:24:41.886Z,0.00
2018-11-22T04:25:41.843Z,0.00
2018-11-22T04:26:41.798Z,0.00
2018-11-22T04:27:41.789Z,0.00
2018-11-22T04:28:41.755Z,0.00
2018-11-22T04:29:41.679Z,0.00
2018-11-22T04:30:41.628Z,0.00
2018-11-22T04:31:41.580Z,0.00
2018-11-22T04:32:41.559Z,0.00
2018-11-22T04:33:41.491Z,0.00
2018-11-22T04:34:41.445Z,0.00
2018-11-22T04:35:41.410Z,0.00
2018-11-22T04:36:41.360Z,0.00
2018-11-22T04:37:41.335Z,0.00
2018-11-22T04:38:41.266Z,0.00
2018-11-22T04:39:41.233Z,0.00
2018-11-22T04:40:41.181Z,0.00
2018-11-22T04:41:41.148Z,0.00
2018-11-22T04:42:41.125Z,0.00
2018-11-22T04:43:41.053Z,0.00
2018-11-22T04:44:41.000Z,0.00
2018-11-22T04:45:40.957Z,0.00
2018-11-22T04:46:40.911Z,0.00
2018-11-22T04:47:40.901Z,0.00
2018-11-22T04:48:40.831Z,0.00
2018-11-22T04:49:40.788Z,0.00
2018-11-22T04:50:40.745Z,0.00
2018-11-22T04:51:40.695Z,0.00
2018-11-22T04:52:40.678Z,0.00
2018-11-22T04:53:40.609Z,0.00
2018-11-22T04:54:40.565Z,0.00
2018-11-22T04:55:40.536Z,0.00
2018-11-22T04:56:40.469Z,0.00
2018-11-22T04:57:40.457Z,0.00
2018-11-22T04:58:40.383Z,0.00
2018-11-22T04:59:40.344Z,0.00
2018-11-22T05:00:40.304Z,0.00
2018-11-22T05:01:40.252Z,0.00
2018-11-22T05:02:40.215Z,0.00
2018-11-22T05:03:40.194Z,0.00
2018-11-22T05:04:40.117Z,0.00
2018-11-22T05:05:40.072Z,0.00
2018-11-22T05:06:40.031Z,0.00
2018-11-22T05:07:39.994Z,0.00
2018-11-22T05:08:39.947Z,0.00
2018-11-22T05:09:39.919Z,0.00
2018-11-22T05:10:39.853Z,0.00
2018-11-22T05:11:39.815Z,0.00
2018-11-22T05:12:39.772Z,0.00
2018-11-22T05:13:39.747Z,0.00
2018-11-22T05:14:39.677Z,0.00
2018-11-22T05:15:39.629Z,0.00
2018-11-22T05:16:39.584Z,0.00
2018-11-22T05:17:39.541Z,0.00
2018-11-22T05:18:39.523Z,0.00
2018-11-22T05:19:39.480Z,0.00
2018-11-22T05:20:39.413Z,0.00
2018-11-22T05:21:39.369Z,0.00
2018-11-22T05:22:39.328Z,0.00
2018-11-22T05:23:39.278Z,0.00
2018-11-22T05:24:39.253Z,0.00
2018-11-22T05:25:39.198Z,0.00
2018-11-22T05:26:39.149Z,0.00
2018-11-22T05:27:39.098Z,0.00
2018-11-22T05:28:39.059Z,0.00
2018-11-22T05:29:39.037Z,0.00
2018-11-22T05:30:38.966Z,0.00
2018-11-22T05:31:38.925Z,0.00
2018-11-22T05:32:38.883Z,0.00
2018-11-22T05:33:38.835Z,0.00
2018-11-22T05:34:38.794Z,0.00
2018-11-22T05:35:38.773Z,0.00
2018-11-22T05:36:38.697Z,0.00
2018-11-22T05:37:38.653Z,0.00
2018-11-22T05:38:38.609Z,0.00
2018-11-22T05:39:38.575Z,0.00
2018-11-22T05:40:38.544Z,0.00
2018-11-22T05:41:39.534Z,0.00
2018-11-22T05:42:38.434Z,0.00
2018-11-22T05:43:38.394Z,0.00
2018-11-22T05:44:38.349Z,0.00
2018-11-22T05:45:38.305Z,0.00
2018-11-22T05:46:38.293Z,0.00
2018-11-22T05:47:38.209Z,0.00
2018-11-22T05:48:38.175Z,0.00
2018-11-22T05:49:38.120Z,0.00
2018-11-22T05:50:38.081Z,0.00
2018-11-22T05:51:38.040Z,0.00
2018-11-22T05:52:38.025Z,0.00
2018-11-22T05:53:37.950Z,0.00
2018-11-22T05:54:37.906Z,0.00
2018-11-22T05:55:37.854Z,0.00
2018-11-22T05:56:37.815Z,0.00
2018-11-22T05:57:37.774Z,0.00
2018-11-22T05:58:37.750Z,0.00
2018-11-22T05:59:37.676Z,0.00
2018-11-22T06:00:37.642Z,0.00
2018-11-22T06:01:37.587Z,0.00
2018-11-22T06:02:37.549Z,0.00
2018-11-22T06:03:37.536Z,0.00
2018-11-22T06:04:37.466Z,0.00
2018-11-22T06:05:37.420Z,0.00
2018-11-22T06:06:37.377Z,0.00
2018-11-22T06:07:37.322Z,0.00
2018-11-22T06:08:37.299Z,0.00
2018-11-22T06:09:37.245Z,0.00
2018-11-22T06:10:37.200Z,0.00
2018-11-22T06:11:37.151Z,0.00
2018-11-22T06:12:37.115Z,0.00
2018-11-22T06:13:37.079Z,0.00
2018-11-22T06:14:37.022Z,0.00
2018-11-22T06:15:36.977Z,0.00
2018-11-22T06:16:36.940Z,0.00
2018-11-22T06:17:36.882Z,0.00
2018-11-22T06:18:36.849Z,0.00
2018-11-22T06:19:36.810Z,0.00
2018-11-22T06:20:36.752Z,0.00
2018-11-22T06:21:36.698Z,0.00
2018-11-22T06:22:36.660Z,0.00
2018-11-22T06:23:36.619Z,0.00
2018-11-22T06:24:36.603Z,0.00
2018-11-22T06:25:36.530Z,0.00
2018-11-22T06:26:36.484Z,0.00
2018-11-22T06:27:36.433Z,0.00
2018-11-22T06:28:36.393Z,0.00
2018-11-22T06:29:36.356Z,0.00
2018-11-22T06:30:36.329Z,0.00
2018-11-22T06:31:36.259Z,0.00
2018-11-22T06:32:36.216Z,0.00
2018-11-22T06:33:36.169Z,0.00
2018-11-22T06:34:36.144Z,0.00
2018-11-22T06:35:36.083Z,0.00
2018-11-22T06:36:36.044Z,0.00
2018-11-22T06:37:36.023Z,0.00
2018-11-22T06:38:35.954Z,0.00
2018-11-22T06:39:35.928Z,0.00
2018-11-22T06:40:35.855Z,0.00
2018-11-22T06:41:35.811Z,0.00
2018-11-22T06:42:35.792Z,0.00
2018-11-22T06:43:35.729Z,0.00
2018-11-22T06:44:35.719Z,0.00
2018-11-22T06:45:35.635Z,0.00
2018-11-22T06:46:35.593Z,0.00
2018-11-22T06:47:35.559Z,0.00
2018-11-22T06:48:35.505Z,0.00
2018-11-22T06:49:35.466Z,0.00
2018-11-22T06:50:35.454Z,0.00
2018-11-22T06:51:35.369Z,5.63
2018-11-22T06:52:35.323Z,5.63
2018-11-22T06:53:35.277Z,5.63
2018-11-22T06:54:35.232Z,5.63
2018-11-22T06:55:35.196Z,5.63
2018-11-22T06:56:35.175Z,5.63
2018-11-22T06:57:35.111Z,5.63
2018-11-22T06:58:35.069Z,5.63
2018-11-22T06:59:35.015Z,5.63
2018-11-22T07:00:34.969Z,11.25
2018-11-22T07:01:35.396Z,11.25
2018-11-22T07:02:34.900Z,11.25
2018-11-22T07:03:34.859Z,11.25
2018-11-22T07:04:34.789Z,11.25
2018-11-22T07:05:34.745Z,11.25
2018-11-22T07:06:34.704Z,16.88
2018-11-22T07:07:34.700Z,16.88
2018-11-22T07:08:34.650Z,16.88
2018-11-22T07:09:34.575Z,16.88
2018-11-22T07:10:34.532Z,16.88
2018-11-22T07:11:34.487Z,16.88
2018-11-22T07:12:34.434Z,16.88
2018-11-22T07:13:34.390Z,16.88
2018-11-22T07:14:34.371Z,22.50
2018-11-22T07:15:34.317Z,22.50
2018-11-22T07:16:34.271Z,22.50
2018-11-22T07:17:34.215Z,28.13
2018-11-22T07:18:34.194Z,28.13
2018-11-22T07:19:34.164Z,28.13
2018-11-22T07:20:34.091Z,33.75
2018-11-22T07:21:34.044Z,33.75
2018-11-22T07:22:34.004Z,33.75
2018-11-22T07:23:33.954Z,33.75
2018-11-22T07:24:33.932Z,33.75
2018-11-22T07:25:33.888Z,39.38
2018-11-22T07:26:33.818Z,39.38
2018-11-22T07:27:38.253Z,45.00
2018-11-22T07:28:33.732Z,45.00
2018-11-22T07:29:33.690Z,45.00
2018-11-22T07:30:33.645Z,50.63
2018-11-22T07:31:33.622Z,50.63
2018-11-22T07:32:33.561Z,50.63
2018-11-22T07:33:38.140Z,56.25
2018-11-22T07:34:33.472Z,56.25
2018-11-22T07:35:33.414Z,56.25
2018-11-22T07:36:33.400Z,61.88
2018-11-22T07:37:33.348Z,61.88
2018-11-22T07:38:33.284Z,61.88
2018-11-22T07:39:33.245Z,61.88
2018-11-22T07:40:33.200Z,67.50
2018-11-22T07:41:33.182Z,67.50
2018-11-22T07:42:33.124Z,67.50
2018-11-22T07:43:33.061Z,73.13
2018-11-22T07:44:33.022Z,78.75
2018-11-22T07:45:33.003Z,78.75
2018-11-22T07:46:32.930Z,78.75
2018-11-22T07:47:32.896Z,78.75
2018-11-22T07:48:32.848Z,84.38
2018-11-22T07:49:32.808Z,90.00
2018-11-22T07:50:32.780Z,90.00
2018-11-22T07:51:32.741Z,95.63
2018-11-22T07:52:32.720Z,101.25
2018-11-22T07:53:32.629Z,101.25
2018-11-22T07:54:32.589Z,106.88
2018-11-22T07:55:32.563Z,112.50
2018-11-22T07:56:32.517Z,118.13
2018-11-22T07:57:32.446Z,129.38
2018-11-22T07:58:32.403Z,129.38
2018-11-22T07:59:32.367Z,135.00
2018-11-22T08:00:32.319Z,135.00
2018-11-22T08:01:32.298Z,140.63
2018-11-22T08:02:32.233Z,146.25
2018-11-22T08:03:32.182Z,157.50
2018-11-22T08:04:32.137Z,168.75
2018-11-22T08:05:32.103Z,180.00
2018-11-22T08:06:32.084Z,185.63
2018-11-22T08:07:32.007Z,191.25
2018-11-22T08:08:31.961Z,202.50
2018-11-22T08:09:31.921Z,213.75
2018-11-22T08:10:31.877Z,219.38
2018-11-22T08:11:31.861Z,225.00
2018-11-22T08:12:31.852Z,230.63
2018-11-22T08:13:31.772Z,236.25
2018-11-22T08:14:31.712Z,247.50
2018-11-22T08:15:31.656Z,253.13
2018-11-22T08:16:31.637Z,264.38
2018-11-22T08:17:31.571Z,270.00
2018-11-22T08:18:31.547Z,270.00
2018-11-22T08:19:31.489Z,281.25
2018-11-22T08:20:31.439Z,298.13
2018-11-22T08:21:38.211Z,298.13
2018-11-22T08:22:31.347Z,298.13
2018-11-22T08:23:31.344Z,309.38
2018-11-22T08:24:31.267Z,309.38
2018-11-22T08:25:31.225Z,309.38
2018-11-22T08:26:31.180Z,309.38
2018-11-22T08:27:31.136Z,303.75
2018-11-22T08:28:31.089Z,286.88
2018-11-22T08:29:31.070Z,281.25
2018-11-22T08:30:31.000Z,275.63
2018-11-22T08:31:30.962Z,281.25
2018-11-22T08:32:30.921Z,281.25
2018-11-22T08:33:30.883Z,281.25
2018-11-22T08:34:30.841Z,270.00
2018-11-22T08:35:30.805Z,264.38
2018-11-22T08:36:30.739Z,275.63
2018-11-22T08:37:30.708Z,286.88
2018-11-22T08:38:30.665Z,292.50
2018-11-22T08:39:30.615Z,292.50
2018-11-22T08:40:30.587Z,298.13
2018-11-22T08:41:30.547Z,303.75
2018-11-22T08:42:30.482Z,315.00
2018-11-22T08:43:30.466Z,320.63
2018-11-22T08:44:30.399Z,337.50
2018-11-22T08:45:30.381Z,343.13
2018-11-22T08:46:30.310Z,343.13
2018-11-22T08:47:30.261Z,320.63
2018-11-22T08:48:30.223Z,292.50
2018-11-22T08:49:30.176Z,292.50
2018-11-22T08:50:30.157Z,320.63
2018-11-22T08:51:30.098Z,337.50
2018-11-22T08:52:30.055Z,320.63
2018-11-22T08:53:36.936Z,303.75
2018-11-22T08:54:29.960Z,309.38
2018-11-22T08:55:29.924Z,298.13
2018-11-22T08:56:29.879Z,292.50
2018-11-22T08:57:29.843Z,275.63
2018-11-22T08:58:29.819Z,275.63
2018-11-22T08:59:29.745Z,281.25
2018-11-22T09:00:29.700Z,298.13
2018-11-22T09:01:29.654Z,270.00
2018-11-22T09:02:29.642Z,225.00
2018-11-22T09:03:29.576Z,219.38
2018-11-22T09:04:50.527Z,208.13
2018-11-22T09:05:29.488Z,219.38
2018-11-22T09:06:29.440Z,230.63
2018-11-22T09:07:29.420Z,253.13
2018-11-22T09:08:29.359Z,275.63
2018-11-22T09:09:29.341Z,303.75
2018-11-22T09:10:29.275Z,303.75
2018-11-22T09:11:29.221Z,298.13
2018-11-22T09:12:29.174Z,303.75
2018-11-22T09:13:29.139Z,309.38
2018-11-22T09:14:29.697Z,303.75
2018-11-22T09:15:31.424Z,253.13
2018-11-22T09:16:29.012Z,219.38
2018-11-22T09:17:28.967Z,208.13
2018-11-22T09:18:28.918Z,225.00
2018-11-22T09:19:28.915Z,247.50
2018-11-22T09:20:28.831Z,241.88
2018-11-22T09:21:28.786Z,219.38
2018-11-22T09:22:28.750Z,219.38
2018-11-22T09:23:28.704Z,208.13
2018-11-22T09:24:28.656Z,208.13
2018-11-22T09:25:28.640Z,202.50
2018-11-22T09:26:28.577Z,230.63
2018-11-22T09:27:28.540Z,286.88
2018-11-22T09:28:28.492Z,275.63
2018-11-22T09:29:28.446Z,315.00
2018-11-22T09:30:28.395Z,365.63
2018-11-22T09:31:28.377Z,393.75
2018-11-22T09:32:28.313Z,360.00
2018-11-22T09:33:28.266Z,365.63
2018-11-22T09:34:28.228Z,354.38
2018-11-22T09:35:28.186Z,309.38
2018-11-22T09:36:28.168Z,236.25
2018-11-22T09:37:28.098Z,219.38
2018-11-22T09:38:28.047Z,258.75
2018-11-22T09:39:28.009Z,303.75
2018-11-22T09:40:27.967Z,298.13
2018-11-22T09:41:27.921Z,292.50
2018-11-22T09:42:27.903Z,286.88
2018-11-22T09:43:27.833Z,343.13
2018-11-22T09:44:27.789Z,360.00
2018-11-22T09:45:27.745Z,382.50
2018-11-22T09:46:27.712Z,337.50
2018-11-22T09:47:27.667Z,275.63
2018-11-22T09:48:27.648Z,270.00
2018-11-22T09:49:27.579Z,270.00
2018-11-22T09:50:27.527Z,241.88
2018-11-22T09:51:27.488Z,264.38
2018-11-22T09:52:27.467Z,253.13
2018-11-22T09:53:27.400Z,241.88
2018-11-22T09:54:27.361Z,236.25
2018-11-22T09:55:27.317Z,247.50
2018-11-22T09:56:27.268Z,247.50
2018-11-22T09:57:27.224Z,270.00
2018-11-22T09:58:27.225Z,286.88
2018-11-22T09:59:27.143Z,275.63
2018-11-22T10:00:27.099Z,331.88
2018-11-22T10:01:27.058Z,354.38
2018-11-22T10:02:27.032Z,298.13
2018-11-22T10:03:26.967Z,270.00
2018-11-22T10:04:26.920Z,258.75
2018-11-22T10:05:27.000Z,253.13
2018-11-22T10:06:26.841Z,230.63
2018-11-22T10:07:26.831Z,241.88
2018-11-22T10:08:26.791Z,264.38
2018-11-22T10:09:26.715Z,286.88
2018-11-22T10:10:26.655Z,270.00
2018-11-22T10:11:26.620Z,270.00
2018-11-22T10:12:26.644Z,258.75
2018-11-22T10:13:26.563Z,253.13
2018-11-22T10:14:26.494Z,253.13
2018-11-22T10:15:26.441Z,225.00
2018-11-22T10:16:26.404Z,219.38
2018-11-22T10:17:26.385Z,219.38
2018-11-22T10:18:26.345Z,241.88
2018-11-22T10:19:26.273Z,253.13
2018-11-22T10:20:26.233Z,258.75
2018-11-22T10:21:26.185Z,281.25
2018-11-22T10:22:26.187Z,270.00
2018-11-22T10:23:26.097Z,247.50
2018-11-22T10:24:26.119Z,225.00
2018-11-22T10:25:26.004Z,213.75
2018-11-22T10:26:25.969Z,230.63
2018-11-22T10:27:25.953Z,241.88
2018-11-22T10:28:25.876Z,264.38
2018-11-22T10:29:25.861Z,292.50
2018-11-22T10:30:25.836Z,303.75
2018-11-22T10:31:25.765Z,303.75
2018-11-22T10:32:25.709Z,303.75
2018-11-22T10:33:25.694Z,275.63
2018-11-22T10:34:25.615Z,281.25
2018-11-22T10:35:25.650Z,270.00
2018-11-22T10:36:25.529Z,264.38
2018-11-22T10:37:25.485Z,225.00
2018-11-22T10:38:25.539Z,196.88
2018-11-22T10:39:25.408Z,196.88
2018-11-22T10:40:25.358Z,196.88
2018-11-22T10:41:25.343Z,196.88
2018-11-22T10:42:25.304Z,191.25
2018-11-22T10:43:25.247Z,202.50
2018-11-22T10:44:25.186Z,202.50
2018-11-22T10:45:25.145Z,191.25
2018-11-22T10:46:25.095Z,191.25
2018-11-22T10:47:25.081Z,185.63
2018-11-22T10:48:25.036Z,191.25
2018-11-22T10:49:24.966Z,202.50
2018-11-22T10:50:24.930Z,202.50
2018-11-22T10:51:24.887Z,196.88
2018-11-22T10:52:24.844Z,191.25
2018-11-22T10:53:24.826Z,196.88
2018-11-22T10:54:24.750Z,213.75
2018-11-22T10:55:24.705Z,225.00
2018-11-22T10:56:24.660Z,225.00
2018-11-22T10:57:24.619Z,230.63
2018-11-22T10:58:24.586Z,236.25
2018-11-22T10:59:24.557Z,236.25
2018-11-22T11:00:24.485Z,225.00
2018-11-22T11:01:24.440Z,208.13
2018-11-22T11:02:24.409Z,196.88
2018-11-22T11:03:24.363Z,196.88
2018-11-22T11:04:24.343Z,208.13
2018-11-22T11:05:24.274Z,202.50
2018-11-22T11:06:24.222Z,191.25
2018-11-22T11:07:24.181Z,174.38
2018-11-22T11:08:24.138Z,168.75
2018-11-22T11:09:24.124Z,163.13
2018-11-22T11:10:24.058Z,157.50
2018-11-22T11:11:24.018Z,163.13
2018-11-22T11:12:25.557Z,174.38
2018-11-22T11:13:23.935Z,180.00
2018-11-22T11:14:23.876Z,196.88
2018-11-22T11:15:23.855Z,196.88
2018-11-22T11:16:23.796Z,219.38
2018-11-22T11:17:23.751Z,225.00
2018-11-22T11:18:23.703Z,225.00
2018-11-22T11:19:23.662Z,225.00
2018-11-22T11:20:23.640Z,236.25
2018-11-22T11:21:23.573Z,253.13
2018-11-22T11:22:23.536Z,309.38
2018-11-22T11:23:23.492Z,354.38
2018-11-22T11:24:23.554Z,343.13
2018-11-22T11:25:23.423Z,326.25
2018-11-22T11:26:23.379Z,309.38
2018-11-22T11:27:23.310Z,303.75
2018-11-22T11:28:23.265Z,320.63
2018-11-22T11:29:23.225Z,331.88
2018-11-22T11:30:23.211Z,348.75
2018-11-22T11:31:23.166Z,360.00
2018-11-22T11:32:23.095Z,360.00
2018-11-22T11:33:23.048Z,388.13
2018-11-22T11:34:23.011Z,388.13
2018-11-22T11:35:22.969Z,393.75
2018-11-22T11:36:22.951Z,433.13
2018-11-22T11:37:32.358Z,483.75
2018-11-22T11:38:32.903Z,545.63
2018-11-22T11:39:22.796Z,556.88
2018-11-22T11:40:22.752Z,545.63
2018-11-22T11:41:22.709Z,523.13
2018-11-22T11:42:22.685Z,495.00
2018-11-22T11:43:22.616Z,478.13
2018-11-22T11:44:22.581Z,466.88
2018-11-22T11:45:22.535Z,455.63
2018-11-22T11:46:22.486Z,455.63
2018-11-22T11:47:22.469Z,450.00
2018-11-22T11:48:22.398Z,450.00
2018-11-22T11:49:22.357Z,450.00
2018-11-22T11:50:22.322Z,455.63
2018-11-22T11:51:22.282Z,495.00
2018-11-22T11:52:22.258Z,534.38
2018-11-22T11:53:27.102Z,534.38
2018-11-22T11:54:22.144Z,534.38
2018-11-22T11:55:22.102Z,528.75
2018-11-22T11:56:22.078Z,517.50
2018-11-22T11:57:22.014Z,517.50
2018-11-22T11:58:22.000Z,523.13
2018-11-22T11:59:21.938Z,506.25
2018-11-22T12:00:21.894Z,461.25
2018-11-22T12:01:21.848Z,438.75
2018-11-22T12:02:21.811Z,421.88
2018-11-22T12:03:21.788Z,405.00
2018-11-22T12:04:21.723Z,405.00
2018-11-22T12:05:21.681Z,410.63
2018-11-22T12:06:21.632Z,405.00
2018-11-22T12:07:21.590Z,393.75
2018-11-22T12:08:21.575Z,382.50
2018-11-22T12:09:21.510Z,382.50
2018-11-22T12:10:21.461Z,393.75
2018-11-22T12:11:21.416Z,410.63
2018-11-22T12:12:21.378Z,416.25
2018-11-22T12:13:21.364Z,421.88
2018-11-22T12:14:21.302Z,438.75
2018-11-22T12:15:21.255Z,438.75
2018-11-22T12:16:21.209Z,444.38
2018-11-22T12:17:21.189Z,433.13
2018-11-22T12:18:21.130Z,433.13
2018-11-22T12:19:21.113Z,410.63
2018-11-22T12:20:21.065Z,382.50
2018-11-22T12:21:21.001Z,371.25
2018-11-22T12:22:20.952Z,354.38
2018-11-22T12:23:20.914Z,348.75
2018-11-22T12:24:20.889Z,354.38
2018-11-22T12:25:20.829Z,348.75
2018-11-22T12:26:20.792Z,348.75
2018-11-22T12:27:20.746Z,343.13
2018-11-22T12:28:20.733Z,343.13
2018-11-22T12:29:20.662Z,348.75
2018-11-22T12:30:20.612Z,354.38
2018-11-22T12:31:20.569Z,348.75
2018-11-22T12:32:20.540Z,354.38
2018-11-22T12:33:20.491Z,388.13
2018-11-22T12:34:20.463Z,416.25
2018-11-22T12:35:20.396Z,405.00
2018-11-22T12:36:20.356Z,410.63
2018-11-22T12:37:20.311Z,421.88
2018-11-22T12:38:20.274Z,405.00
2018-11-22T12:39:20.255Z,388.13
2018-11-22T12:40:20.191Z,376.88
2018-11-22T12:41:20.147Z,382.50
2018-11-22T12:42:20.097Z,382.50
2018-11-22T12:43:20.055Z,376.88
2018-11-22T12:44:20.035Z,371.25
2018-11-22T12:45:19.971Z,365.63
2018-11-22T12:46:19.941Z,343.13
2018-11-22T12:47:28.943Z,343.13
2018-11-22T12:48:19.850Z,337.50
2018-11-22T12:49:19.841Z,337.50
2018-11-22T12:50:19.760Z,331.88
2018-11-22T12:51:19.718Z,331.88
2018-11-22T12:52:19.668Z,320.63
2018-11-22T12:53:19.627Z,309.38
2018-11-22T12:54:19.582Z,298.13
2018-11-22T12:55:19.569Z,298.13
2018-11-22T12:56:19.506Z,309.38